Fournier Brothers — WDG5150 — position and weather

sailwx.info

Track history (hours):
 
Tides and Currents Weather Stations Pressure Air Temp Water Temp Dewpoint Dewpoint Depression Visibility Wind Speed Wind Dir Waves Ship Positions

Fournier Brothers

Owner: Canal Towing, Belfast, ME. More information available from US FCC via Universal Licensing System and Coast Guard Vessel Documentation Center.

Last reported at 2018-Aug-12 12:26 UTC. Time now 2018-Aug-20 16:47 UTC.
Position N 44°27' W 068°54'.
Warning: this ship's position is 8 days out of date.

; draft 4.2 m.

Type: Tug. MMSI: 367543820.

Date/timePositionNaut miles runAvg speedWind from/ knotsBaromVisibWave heightAir tempDewpointWater temp
2018-Aug-12 12:26N 44°27' W 068°54'0 0.0
2018-Aug-12 12:00N 44°27' W 068°54'2 3.1
2018-Aug-12 11:24N 44°26' W 068°52'4 8.8
2018-Aug-12 10:57N 44°28' W 068°48'6 0.3
2018-Aug-11 14:50N 44°34' W 068°48'2 6.1
2018-Aug-11 14:28N 44°32' W 068°48'3 6.1
2018-Aug-11 14:00N 44°29' W 068°48'2 4.1
2018-Aug-11 13:30N 44°27' W 068°50'3 6.8
2018-Aug-11 13:00N 44°26' W 068°54'2 3.1
2018-Aug-11 12:30N 44°27' W 068°54'0 0.1
2018-Aug-11 12:00N 44°27' W 068°54'0 0.0
2018-Aug-11 11:30N 44°27' W 068°54'0 0.0
2018-Aug-11 11:00N 44°27' W 068°54'0 0.0
2018-Aug-09 17:42N 44°27' W 068°54'0 0.0
2018-Aug-09 17:29N 44°27' W 068°54'0 0.0
2018-Aug-09 15:28N 44°27' W 068°54'0 0.0
2018-Aug-09 14:52N 44°27' W 068°54'0 0.0
2018-Aug-07 16:57N 44°27' W 068°54'0 0.0
2018-Aug-07 16:30N 44°27' W 068°54'0 0.0
2018-Aug-07 15:32N 44°27' W 068°54'0 0.0
2018-Aug-07 14:30N 44°27' W 068°54'  
Track history (hours):
 
Tides and Currents Weather Stations Pressure Air Temp Water Temp Dewpoint Dewpoint Depression Visibility Wind Speed Wind Dir Waves Ship Positions

Fournier Brothers

Owner: Canal Towing, Belfast, ME. More information available from US FCC via Universal Licensing System and Coast Guard Vessel Documentation Center.

Last reported at 2018-Aug-12 12:26 UTC. Time now 2018-Aug-20 16:47 UTC.
Position N 44°27' W 068°54'.
Warning: this ship's position is 8 days out of date.

; draft 4.2 m.

Type: Tug. MMSI: 367543820.

Date/timePositionNaut miles runAvg speedWind from/ knotsBaromVisibWave heightAir tempDewpointWater temp
2018-Aug-12 12:26N 44°27' W 068°54'0 0.0
2018-Aug-12 12:00N 44°27' W 068°54'2 3.1
2018-Aug-12 11:24N 44°26' W 068°52'4 8.8
2018-Aug-12 10:57N 44°28' W 068°48'6 0.3
2018-Aug-11 14:50N 44°34' W 068°48'2 6.1
2018-Aug-11 14:28N 44°32' W 068°48'3 6.1
2018-Aug-11 14:00N 44°29' W 068°48'2 4.1
2018-Aug-11 13:30N 44°27' W 068°50'3 6.8
2018-Aug-11 13:00N 44°26' W 068°54'2 3.1
2018-Aug-11 12:30N 44°27' W 068°54'0 0.1
2018-Aug-11 12:00N 44°27' W 068°54'0 0.0
2018-Aug-11 11:30N 44°27' W 068°54'0 0.0
2018-Aug-11 11:00N 44°27' W 068°54'0 0.0
2018-Aug-09 17:42N 44°27' W 068°54'0 0.0
2018-Aug-09 17:29N 44°27' W 068°54'0 0.0
2018-Aug-09 15:28N 44°27' W 068°54'0 0.0
2018-Aug-09 14:52N 44°27' W 068°54'0 0.0
2018-Aug-07 16:57N 44°27' W 068°54'0 0.0
2018-Aug-07 16:30N 44°27' W 068°54'0 0.0
2018-Aug-07 15:32N 44°27' W 068°54'0 0.0
2018-Aug-07 14:30N 44°27' W 068°54'  

Dump ship's entire track history